TMKTILLAMOOK
METARs for airports near TMK, sorted by distance:
N 0 nm 39' KTMK 230030Z 00000KT 10SM CLR 10/06 A3035
SE 31 nm 162' KMMV 222353Z 35004KT 10SM CLR 10/04 A3041
E 37 nm 207' KHIO 222353Z 30003KT 10SM CLR 09/04 A3041
N 44 nm 14' KAST 222355Z 06008KT 10SM CLR 09/04 A3037
E 45 nm 199' KUAO 222353Z 03008KT 10SM CLR 10/03 A3041
NE 45 nm 58' KSPB 222353Z 00000KT 10SM CLR 09/03 A3043
SE 45 nm 213' KSLE 222356Z 33008KT 10SM CLR 09/04 A3040
E 50 nm 28' KVUO 222353Z 29007KT 10SM CLR 09/03 A3043
S 51 nm 160' KONP 230035Z 07014G18KT 10SM CLR 11/02 A3032
E 52 nm 30' KPDX 222353Z 29007KT 10SM FEW100 FEW250 09/03 A3043
NE 56 nm 20' KKLS 222356Z 36006KT 10SM CLR 09/04 A3044
SE 59 nm 249' KCVO 222356Z 02006KT 10SM CLR 07/03 A3040
E 60 nm 38' KTTD 222153Z 27008KT 10SM CLR 08/03 A3044
S 81 nm 373' KEUG 222354Z 36011KT 10SM OVC010 06/03 A3039
NE 83 nm 177' KCLS 230035Z 03009KT 10SM CLR 06/04 A3047
N 93 nm 17' KHQM 222353Z 08015KT 10SM CLR 10/04 A3044
TAFs for airports near TMK, sorted by distance:
E 37 nm 207' KHIO TAF KHIO 222331Z 2300/2324 02004KT P6SM SKC
  FM230700 35002KT 1SM BR SCT002 BKN009
  FM231100 00000KT 1/2SM FG OVC002
  FM231800 VRB02KT 6SM BR FEW002
N 44 nm 14' KAST TAF KAST 222331Z 2300/2324 06008KT P6SM SKC
E 45 nm 199' KUAO KUAO 222331Z 2300/2324 02005KT P6SM SKC
  FM230900 36002KT 5SM BR MIFG FEW007 BKN015
  FM231400 00000KT 1/2SM FG OVC002
  FM232000 00000KT P6SM FEW002
SE 45 nm 213' KSLE TAF KSLE 222331Z 2300/2324 36007KT P6SM SKC
  FM231100 35004KT 6SM BR MIFG BKN015
  TEMPO 2314/2318 1SM BR OVC002
  FM232000 VRB02KT P6SM SCT002
S 51 nm 160' KONP TAF KONP 222331Z 2300/2324 03006KT P6SM SKC
  FM230200 11011G20KT P6SM SKC
E 52 nm 30' KPDX TAF KPDX 222331Z 2300/2324 32005KT P6SM SKC
  FM231400 00000KT 6SM BR FEW003
  FM232100 VRB03KT P6SM FEW250
E 60 nm 38' KTTD TAF KTTD 222331Z 2300/2324 27007KT P6SM SKC
  FM230100 08006KT P6SM SKC
  FM230500 10012G20KT P6SM SKC
  FM231200 10022G31KT P6SM SKC
  FM231800 10010KT P6SM FEW250
  AMD NOT SKED
S 81 nm 373' KEUG TAF KEUG 222331Z 2300/2324 01008KT P6SM OVC012
  FM230200 02008KT P6SM SCT015
  FM230800 35004KT 3SM BR SCT004 BKN010
  FM231200 00000KT 1/2SM FG OVC002
  FM232200 VRB02KT P6SM SCT002
N 93 nm 17' KHQM TAF KHQM 222320Z 2300/2324 06010KT P6SM SCT200
  FM230600 05005KT 4SM BR SKC
  FM231200 10012KT 5SM BR SKC
  FM232000 03009KT P6SM SKC

Shortcut to this page: http://wxbay.com.

Data may contain errors.